sensor_id;sensor_type;location;lat;lon;timestamp;temperature;humidity
62916;DHT22;49010;51.230;-2.306;2022-09-20T00:03:18;14.20;76.90
62916;DHT22;49010;51.230;-2.306;2022-09-20T00:07:00;14.20;77.40
62916;DHT22;49010;51.230;-2.306;2022-09-20T00:10:42;14.10;77.50
62916;DHT22;49010;51.230;-2.306;2022-09-20T00:14:24;14.10;77.60
62916;DHT22;49010;51.230;-2.306;2022-09-20T00:18:07;14.10;78.00
62916;DHT22;49010;51.230;-2.306;2022-09-20T00:21:49;14.10;78.10
62916;DHT22;49010;51.230;-2.306;2022-09-20T00:25:31;14.00;78.00
62916;DHT22;49010;51.230;-2.306;2022-09-20T00:29:13;14.00;78.10
62916;DHT22;49010;51.230;-2.306;2022-09-20T00:32:55;14.10;78.00
62916;DHT22;49010;51.230;-2.306;2022-09-20T00:36:37;14.10;78.40
62916;DHT22;49010;51.230;-2.306;2022-09-20T00:40:20;14.10;78.50
62916;DHT22;49010;51.230;-2.306;2022-09-20T00:48:27;14.20;77.80
62916;DHT22;49010;51.230;-2.306;2022-09-20T00:52:11;14.20;78.10
62916;DHT22;49010;51.230;-2.306;2022-09-20T00:56:05;14.20;78.10
62916;DHT22;49010;51.230;-2.306;2022-09-20T00:59:48;14.20;78.20
62916;DHT22;49010;51.230;-2.306;2022-09-20T01:03:33;14.20;78.30
62916;DHT22;49010;51.230;-2.306;2022-09-20T01:07:19;14.20;78.20
62916;DHT22;49010;51.230;-2.306;2022-09-20T01:11:03;14.30;78.30
62916;DHT22;49010;51.230;-2.306;2022-09-20T01:14:46;14.20;78.30
62916;DHT22;49010;51.230;-2.306;2022-09-20T01:18:31;14.20;78.50
62916;DHT22;49010;51.230;-2.306;2022-09-20T01:22:21;14.20;78.40
62916;DHT22;49010;51.230;-2.306;2022-09-20T01:30:05;14.20;78.70
62916;DHT22;49010;51.230;-2.306;2022-09-20T01:33:57;14.10;79.00
62916;DHT22;49010;51.230;-2.306;2022-09-20T01:41:49;14.20;78.90
62916;DHT22;49010;51.230;-2.306;2022-09-20T01:45:33;14.10;79.20
62916;DHT22;49010;51.230;-2.306;2022-09-20T01:49:29;14.10;79.20
62916;DHT22;49010;51.230;-2.306;2022-09-20T02:01:41;14.00;79.40
62916;DHT22;49010;51.230;-2.306;2022-09-20T02:17:47;14.00;80.40
62916;DHT22;49010;51.230;-2.306;2022-09-20T02:30:22;14.00;80.30
62916;DHT22;49010;51.230;-2.306;2022-09-20T02:38:45;13.90;79.70
62916;DHT22;49010;51.230;-2.306;2022-09-20T02:42:33;14.00;80.50
62916;DHT22;49010;51.230;-2.306;2022-09-20T02:58:50;13.90;80.20
62916;DHT22;49010;51.230;-2.306;2022-09-20T03:14:30;13.80;81.40
62916;DHT22;49010;51.230;-2.306;2022-09-20T03:18:17;13.90;81.60
62916;DHT22;49010;51.230;-2.306;2022-09-20T03:38:06;13.70;81.20
62916;DHT22;49010;51.230;-2.306;2022-09-20T04:15:19;12.90;82.00
62916;DHT22;49010;51.230;-2.306;2022-09-20T04:22:24;12.80;82.80
62916;DHT22;49010;51.230;-2.306;2022-09-20T04:26:07;12.70;83.20
62916;DHT22;49010;51.230;-2.306;2022-09-20T04:33:42;12.60;83.10
62916;DHT22;49010;51.230;-2.306;2022-09-20T04:37:36;12.50;83.20
62916;DHT22;49010;51.230;-2.306;2022-09-20T05:10:25;12.10;82.70
62916;DHT22;49010;51.230;-2.306;2022-09-20T05:14:36;12.00;82.90
62916;DHT22;49010;51.230;-2.306;2022-09-20T05:38:28;11.70;83.20
62916;DHT22;49010;51.230;-2.306;2022-09-20T05:46:26;11.60;82.90
62916;DHT22;49010;51.230;-2.306;2022-09-20T05:50:38;11.50;83.10
62916;DHT22;49010;51.230;-2.306;2022-09-20T06:19:08;11.20;83.20
62916;DHT22;49010;51.230;-2.306;2022-09-20T06:22:54;11.20;83.20
62916;DHT22;49010;51.230;-2.306;2022-09-20T06:26:37;11.20;83.60
62916;DHT22;49010;51.230;-2.306;2022-09-20T06:30:23;11.20;83.90
62916;DHT22;49010;51.230;-2.306;2022-09-20T06:34:09;11.20;84.00
62916;DHT22;49010;51.230;-2.306;2022-09-20T06:37:58;11.30;84.10
62916;DHT22;49010;51.230;-2.306;2022-09-20T06:42:02;11.30;83.90
62916;DHT22;49010;51.230;-2.306;2022-09-20T06:45:44;11.30;84.20
62916;DHT22;49010;51.230;-2.306;2022-09-20T06:49:26;11.30;84.40
62916;DHT22;49010;51.230;-2.306;2022-09-20T06:53:16;11.30;85.30
62916;DHT22;49010;51.230;-2.306;2022-09-20T06:57:02;11.40;84.70
62916;DHT22;49010;51.230;-2.306;2022-09-20T07:00:45;11.30;84.80
62916;DHT22;49010;51.230;-2.306;2022-09-20T07:04:27;11.40;84.90
62916;DHT22;49010;51.230;-2.306;2022-09-20T07:08:09;11.40;85.00
62916;DHT22;49010;51.230;-2.306;2022-09-20T07:11:51;11.50;85.20
62916;DHT22;49010;51.230;-2.306;2022-09-20T07:15:33;11.50;85.50
62916;DHT22;49010;51.230;-2.306;2022-09-20T07:19:15;11.60;85.80
62916;DHT22;49010;51.230;-2.306;2022-09-20T07:22:57;11.60;86.20
62916;DHT22;49010;51.230;-2.306;2022-09-20T07:26:40;11.70;87.30
62916;DHT22;49010;51.230;-2.306;2022-09-20T07:30:35;11.80;87.70
62916;DHT22;49010;51.230;-2.306;2022-09-20T07:34:16;11.90;88.20
62916;DHT22;49010;51.230;-2.306;2022-09-20T07:38:00;12.00;88.30
62916;DHT22;49010;51.230;-2.306;2022-09-20T07:41:43;12.20;88.60
62916;DHT22;49010;51.230;-2.306;2022-09-20T07:45:29;12.40;88.70
62916;DHT22;49010;51.230;-2.306;2022-09-20T07:49:11;12.50;88.80
62916;DHT22;49010;51.230;-2.306;2022-09-20T07:52:55;12.60;88.80
62916;DHT22;49010;51.230;-2.306;2022-09-20T07:56:39;12.80;88.80
62916;DHT22;49010;51.230;-2.306;2022-09-20T08:00:21;13.00;88.70
62916;DHT22;49010;51.230;-2.306;2022-09-20T08:04:07;13.20;88.40
62916;DHT22;49010;51.230;-2.306;2022-09-20T08:07:49;13.30;87.90
62916;DHT22;49010;51.230;-2.306;2022-09-20T08:11:31;13.50;87.60
62916;DHT22;49010;51.230;-2.306;2022-09-20T08:15:13;13.70;87.50
62916;DHT22;49010;51.230;-2.306;2022-09-20T08:19:00;13.80;87.30
62916;DHT22;49010;51.230;-2.306;2022-09-20T08:22:42;13.90;86.90
62916;DHT22;49010;51.230;-2.306;2022-09-20T08:26:37;14.10;86.50
62916;DHT22;49010;51.230;-2.306;2022-09-20T08:30:18;14.20;86.70
62916;DHT22;49010;51.230;-2.306;2022-09-20T08:34:07;14.30;86.40
62916;DHT22;49010;51.230;-2.306;2022-09-20T08:37:50;14.50;85.90
62916;DHT22;49010;51.230;-2.306;2022-09-20T08:45:28;14.80;85.00
62916;DHT22;49010;51.230;-2.306;2022-09-20T08:49:27;14.90;84.90
62916;DHT22;49010;51.230;-2.306;2022-09-20T08:53:12;15.10;84.10
62916;DHT22;49010;51.230;-2.306;2022-09-20T08:56:55;15.20;84.00
62916;DHT22;49010;51.230;-2.306;2022-09-20T09:00:38;15.30;83.20
62916;DHT22;49010;51.230;-2.306;2022-09-20T09:04:22;15.50;83.00
62916;DHT22;49010;51.230;-2.306;2022-09-20T09:08:12;15.80;82.10
62916;DHT22;49010;51.230;-2.306;2022-09-20T09:11:57;16.10;81.40
62916;DHT22;49010;51.230;-2.306;2022-09-20T09:15:40;16.40;80.00
62916;DHT22;49010;51.230;-2.306;2022-09-20T09:19:32;16.70;78.70
62916;DHT22;49010;51.230;-2.306;2022-09-20T09:23:26;17.00;76.30
62916;DHT22;49010;51.230;-2.306;2022-09-20T09:27:18;17.30;75.80
62916;DHT22;49010;51.230;-2.306;2022-09-20T09:31:21;17.60;74.30
62916;DHT22;49010;51.230;-2.306;2022-09-20T09:39:16;18.50;71.60
62916;DHT22;49010;51.230;-2.306;2022-09-20T09:43:03;19.20;68.50
62916;DHT22;49010;51.230;-2.306;2022-09-20T09:46:44;19.80;65.40
62916;DHT22;49010;51.230;-2.306;2022-09-20T09:50:29;20.40;62.10
62916;DHT22;49010;51.230;-2.306;2022-09-20T09:54:16;20.70;62.20
62916;DHT22;49010;51.230;-2.306;2022-09-20T09:58:13;21.50;59.30
62916;DHT22;49010;51.230;-2.306;2022-09-20T10:06:29;22.80;54.80
62916;DHT22;49010;51.230;-2.306;2022-09-20T10:14:55;22.30;54.90
62916;DHT22;49010;51.230;-2.306;2022-09-20T10:22:49;21.80;55.80
62916;DHT22;49010;51.230;-2.306;2022-09-20T10:35:47;22.00;54.30
62916;DHT22;49010;51.230;-2.306;2022-09-20T10:39:38;22.10;53.40
62916;DHT22;49010;51.230;-2.306;2022-09-20T10:47:55;22.00;51.90
62916;DHT22;49010;51.230;-2.306;2022-09-20T10:51:58;22.00;51.40
62916;DHT22;49010;51.230;-2.306;2022-09-20T10:59:57;22.30;50.60
62916;DHT22;49010;51.230;-2.306;2022-09-20T11:08:19;23.30;50.50
62916;DHT22;49010;51.230;-2.306;2022-09-20T11:12:14;24.10;47.40
62916;DHT22;49010;51.230;-2.306;2022-09-20T11:16:21;24.90;45.30
62916;DHT22;49010;51.230;-2.306;2022-09-20T11:20:19;25.40;45.90
62916;DHT22;49010;51.230;-2.306;2022-09-20T11:24:40;25.60;44.90
62916;DHT22;49010;51.230;-2.306;2022-09-20T11:28:29;25.70;46.80
62916;DHT22;49010;51.230;-2.306;2022-09-20T11:32:23;25.50;41.10
62916;DHT22;49010;51.230;-2.306;2022-09-20T11:36:12;25.30;41.40
62916;DHT22;49010;51.230;-2.306;2022-09-20T11:40:19;25.20;42.90
62916;DHT22;49010;51.230;-2.306;2022-09-20T11:44:10;25.50;45.00
62916;DHT22;49010;51.230;-2.306;2022-09-20T11:47:57;26.10;41.40
62916;DHT22;49010;51.230;-2.306;2022-09-20T11:56:21;27.20;42.20
62916;DHT22;49010;51.230;-2.306;2022-09-20T12:00:04;27.70;42.60
62916;DHT22;49010;51.230;-2.306;2022-09-20T12:03:51;28.30;38.90
62916;DHT22;49010;51.230;-2.306;2022-09-20T12:07:54;29.40;35.90
62916;DHT22;49010;51.230;-2.306;2022-09-20T12:11:38;30.00;35.50
62916;DHT22;49010;51.230;-2.306;2022-09-20T12:15:34;29.80;36.20
62916;DHT22;49010;51.230;-2.306;2022-09-20T12:39:17;26.80;41.80
62916;DHT22;49010;51.230;-2.306;2022-09-20T12:43:16;26.70;38.50
62916;DHT22;49010;51.230;-2.306;2022-09-20T12:47:03;26.60;39.60
62916;DHT22;49010;51.230;-2.306;2022-09-20T12:51:28;26.80;38.90
62916;DHT22;49010;51.230;-2.306;2022-09-20T12:56:25;27.40;42.20
62916;DHT22;49010;51.230;-2.306;2022-09-20T12:59:55;28.50;37.70
62916;DHT22;49010;51.230;-2.306;2022-09-20T13:03:45;29.70;34.60
62916;DHT22;49010;51.230;-2.306;2022-09-20T13:07:42;31.00;33.10
62916;DHT22;49010;51.230;-2.306;2022-09-20T13:15:21;32.60;33.20
62916;DHT22;49010;51.230;-2.306;2022-09-20T13:22:59;33.90;32.30
62916;DHT22;49010;51.230;-2.306;2022-09-20T13:26:45;34.10;29.40
62916;DHT22;49010;51.230;-2.306;2022-09-20T13:30:28;34.40;29.30
62916;DHT22;49010;51.230;-2.306;2022-09-20T13:34:18;34.90;28.90
62916;DHT22;49010;51.230;-2.306;2022-09-20T13:38:04;35.20;28.70
62916;DHT22;49010;51.230;-2.306;2022-09-20T13:41:47;35.30;27.70
62916;DHT22;49010;51.230;-2.306;2022-09-20T13:45:30;35.50;27.60
62916;DHT22;49010;51.230;-2.306;2022-09-20T13:49:15;35.70;26.90
62916;DHT22;49010;51.230;-2.306;2022-09-20T13:53:12;35.00;37.40
62916;DHT22;49010;51.230;-2.306;2022-09-20T13:57:20;33.90;29.30
62916;DHT22;49010;51.230;-2.306;2022-09-20T14:01:05;32.60;30.00
62916;DHT22;49010;51.230;-2.306;2022-09-20T14:04:52;31.70;31.10
62916;DHT22;49010;51.230;-2.306;2022-09-20T14:08:39;31.00;31.50
62916;DHT22;49010;51.230;-2.306;2022-09-20T14:12:24;30.40;32.20
62916;DHT22;49010;51.230;-2.306;2022-09-20T14:16:08;30.30;32.20
62916;DHT22;49010;51.230;-2.306;2022-09-20T14:19:52;30.20;32.10
62916;DHT22;49010;51.230;-2.306;2022-09-20T14:23:52;30.10;33.30
62916;DHT22;49010;51.230;-2.306;2022-09-20T14:27:34;29.70;34.80
62916;DHT22;49010;51.230;-2.306;2022-09-20T14:31:29;29.50;31.70
62916;DHT22;49010;51.230;-2.306;2022-09-20T14:35:18;29.80;33.00
62916;DHT22;49010;51.230;-2.306;2022-09-20T14:39:03;29.40;38.50
62916;DHT22;49010;51.230;-2.306;2022-09-20T14:42:47;28.60;34.10
62916;DHT22;49010;51.230;-2.306;2022-09-20T14:46:35;27.90;34.00
62916;DHT22;49010;51.230;-2.306;2022-09-20T14:51:06;27.40;35.10
62916;DHT22;49010;51.230;-2.306;2022-09-20T14:54:28;26.90;36.30
62916;DHT22;49010;51.230;-2.306;2022-09-20T14:58:21;26.40;37.00
62916;DHT22;49010;51.230;-2.306;2022-09-20T15:02:13;26.20;36.50
62916;DHT22;49010;51.230;-2.306;2022-09-20T15:05:56;26.20;37.00
62916;DHT22;49010;51.230;-2.306;2022-09-20T15:09:38;26.00;38.90
62916;DHT22;49010;51.230;-2.306;2022-09-20T15:13:19;25.80;38.90
62916;DHT22;49010;51.230;-2.306;2022-09-20T15:17:01;25.50;39.80
62916;DHT22;49010;51.230;-2.306;2022-09-20T15:20:43;25.40;41.10
62916;DHT22;49010;51.230;-2.306;2022-09-20T15:24:25;25.20;41.10
62916;DHT22;49010;51.230;-2.306;2022-09-20T15:28:13;25.10;41.00
62916;DHT22;49010;51.230;-2.306;2022-09-20T15:31:57;25.00;40.90
62916;DHT22;49010;51.230;-2.306;2022-09-20T15:35:39;24.90;40.50
62916;DHT22;49010;51.230;-2.306;2022-09-20T15:39:21;24.80;41.50
62916;DHT22;49010;51.230;-2.306;2022-09-20T15:43:04;24.70;41.00
62916;DHT22;49010;51.230;-2.306;2022-09-20T15:46:46;24.50;42.10
62916;DHT22;49010;51.230;-2.306;2022-09-20T15:50:29;24.50;42.40
62916;DHT22;49010;51.230;-2.306;2022-09-20T15:54:13;24.50;42.30
62916;DHT22;49010;51.230;-2.306;2022-09-20T15:57:55;24.50;43.70
62916;DHT22;49010;51.230;-2.306;2022-09-20T16:01:39;24.40;42.60
62916;DHT22;49010;51.230;-2.306;2022-09-20T16:05:21;24.40;42.20
62916;DHT22;49010;51.230;-2.306;2022-09-20T16:09:03;24.40;42.00
62916;DHT22;49010;51.230;-2.306;2022-09-20T16:12:45;24.40;42.50
62916;DHT22;49010;51.230;-2.306;2022-09-20T16:16:31;24.30;42.10
62916;DHT22;49010;51.230;-2.306;2022-09-20T16:20:20;24.30;42.50
62916;DHT22;49010;51.230;-2.306;2022-09-20T16:24:03;24.30;41.70
62916;DHT22;49010;51.230;-2.306;2022-09-20T16:27:46;24.30;43.70
62916;DHT22;49010;51.230;-2.306;2022-09-20T16:35:21;24.30;43.30
62916;DHT22;49010;51.230;-2.306;2022-09-20T16:39:03;24.40;43.20
62916;DHT22;49010;51.230;-2.306;2022-09-20T16:42:45;24.30;43.80
62916;DHT22;49010;51.230;-2.306;2022-09-20T16:46:32;24.10;43.30
62916;DHT22;49010;51.230;-2.306;2022-09-20T16:50:17;24.00;44.90
62916;DHT22;49010;51.230;-2.306;2022-09-20T16:54:01;23.90;45.10
62916;DHT22;49010;51.230;-2.306;2022-09-20T16:57:43;23.70;44.90
62916;DHT22;49010;51.230;-2.306;2022-09-20T17:01:26;23.70;44.70
62916;DHT22;49010;51.230;-2.306;2022-09-20T17:05:08;23.60;45.40
62916;DHT22;49010;51.230;-2.306;2022-09-20T17:08:51;23.50;44.70
62916;DHT22;49010;51.230;-2.306;2022-09-20T17:12:39;23.40;45.10
62916;DHT22;49010;51.230;-2.306;2022-09-20T17:16:32;23.30;44.30
62916;DHT22;49010;51.230;-2.306;2022-09-20T17:20:14;23.20;44.40
62916;DHT22;49010;51.230;-2.306;2022-09-20T17:23:58;23.10;44.00
62916;DHT22;49010;51.230;-2.306;2022-09-20T17:27:40;23.00;44.00
62916;DHT22;49010;51.230;-2.306;2022-09-20T17:31:24;23.00;44.10
62916;DHT22;49010;51.230;-2.306;2022-09-20T17:35:09;22.90;46.80
62916;DHT22;49010;51.230;-2.306;2022-09-20T17:38:53;22.80;45.50
62916;DHT22;49010;51.230;-2.306;2022-09-20T17:42:35;22.70;46.10
62916;DHT22;49010;51.230;-2.306;2022-09-20T17:46:26;22.60;47.90
62916;DHT22;49010;51.230;-2.306;2022-09-20T17:50:10;22.50;48.10
62916;DHT22;49010;51.230;-2.306;2022-09-20T17:53:55;22.40;48.70
62916;DHT22;49010;51.230;-2.306;2022-09-20T17:57:37;22.30;49.40
62916;DHT22;49010;51.230;-2.306;2022-09-20T18:01:19;22.20;50.90
62916;DHT22;49010;51.230;-2.306;2022-09-20T18:05:01;22.00;49.60
62916;DHT22;49010;51.230;-2.306;2022-09-20T18:08:51;22.00;50.60
62916;DHT22;49010;51.230;-2.306;2022-09-20T18:12:33;21.80;50.80
62916;DHT22;49010;51.230;-2.306;2022-09-20T18:16:16;21.70;51.40
62916;DHT22;49010;51.230;-2.306;2022-09-20T18:19:59;21.70;52.60
62916;DHT22;49010;51.230;-2.306;2022-09-20T18:23:42;21.50;52.90
62916;DHT22;49010;51.230;-2.306;2022-09-20T18:27:24;21.40;53.50
62916;DHT22;49010;51.230;-2.306;2022-09-20T18:31:05;21.30;53.80
62916;DHT22;49010;51.230;-2.306;2022-09-20T18:34:49;21.20;54.50
62916;DHT22;49010;51.230;-2.306;2022-09-20T18:38:31;21.10;54.80
62916;DHT22;49010;51.230;-2.306;2022-09-20T18:42:14;21.10;54.60
62916;DHT22;49010;51.230;-2.306;2022-09-20T18:45:56;21.00;54.90
62916;DHT22;49010;51.230;-2.306;2022-09-20T18:49:38;20.90;56.10
62916;DHT22;49010;51.230;-2.306;2022-09-20T18:53:20;20.80;56.20
62916;DHT22;49010;51.230;-2.306;2022-09-20T18:57:02;20.70;56.50
62916;DHT22;49010;51.230;-2.306;2022-09-20T19:00:44;20.60;56.60
62916;DHT22;49010;51.230;-2.306;2022-09-20T19:09:02;20.20;56.60
62916;DHT22;49010;51.230;-2.306;2022-09-20T19:16:44;19.90;57.00
62916;DHT22;49010;51.230;-2.306;2022-09-20T19:29:19;19.50;56.80
62916;DHT22;49010;51.230;-2.306;2022-09-20T19:33:01;19.30;56.60
62916;DHT22;49010;51.230;-2.306;2022-09-20T19:45:25;18.90;57.00
62916;DHT22;49010;51.230;-2.306;2022-09-20T19:49:19;18.70;57.20
62916;DHT22;49010;51.230;-2.306;2022-09-20T19:53:04;18.60;57.70
62916;DHT22;49010;51.230;-2.306;2022-09-20T19:56:57;18.50;58.10
62916;DHT22;49010;51.230;-2.306;2022-09-20T20:00:43;18.40;58.00
62916;DHT22;49010;51.230;-2.306;2022-09-20T20:04:26;18.30;59.00
62916;DHT22;49010;51.230;-2.306;2022-09-20T20:15:51;18.00;59.80
62916;DHT22;49010;51.230;-2.306;2022-09-20T20:23:48;17.70;60.10
62916;DHT22;49010;51.230;-2.306;2022-09-20T20:27:34;17.70;60.20
62916;DHT22;49010;51.230;-2.306;2022-09-20T20:31:16;17.60;61.10
62916;DHT22;49010;51.230;-2.306;2022-09-20T20:34:58;17.50;61.30
62916;DHT22;49010;51.230;-2.306;2022-09-20T20:38:40;17.40;61.60
62916;DHT22;49010;51.230;-2.306;2022-09-20T20:42:24;17.30;61.90
62916;DHT22;49010;51.230;-2.306;2022-09-20T20:46:08;17.20;62.30
62916;DHT22;49010;51.230;-2.306;2022-09-20T20:49:51;17.10;62.70
62916;DHT22;49010;51.230;-2.306;2022-09-20T20:53:42;17.00;62.90
62916;DHT22;49010;51.230;-2.306;2022-09-20T20:57:27;16.90;63.10
62916;DHT22;49010;51.230;-2.306;2022-09-20T21:01:18;16.80;63.70
62916;DHT22;49010;51.230;-2.306;2022-09-20T21:05:01;16.70;64.00
62916;DHT22;49010;51.230;-2.306;2022-09-20T21:08:45;16.60;64.30
62916;DHT22;49010;51.230;-2.306;2022-09-20T21:12:30;16.50;64.50
62916;DHT22;49010;51.230;-2.306;2022-09-20T21:16:14;16.50;64.60
62916;DHT22;49010;51.230;-2.306;2022-09-20T21:19:57;16.40;65.00
62916;DHT22;49010;51.230;-2.306;2022-09-20T21:23:38;16.30;65.10
62916;DHT22;49010;51.230;-2.306;2022-09-20T21:27:20;16.30;65.60
62916;DHT22;49010;51.230;-2.306;2022-09-20T21:31:06;16.10;65.70
62916;DHT22;49010;51.230;-2.306;2022-09-20T21:34:48;16.00;66.30
62916;DHT22;49010;51.230;-2.306;2022-09-20T21:38:30;15.90;66.50
62916;DHT22;49010;51.230;-2.306;2022-09-20T21:42:15;15.90;66.90
62916;DHT22;49010;51.230;-2.306;2022-09-20T21:45:57;15.80;67.00
62916;DHT22;49010;51.230;-2.306;2022-09-20T21:49:39;15.80;67.50
62916;DHT22;49010;51.230;-2.306;2022-09-20T21:53:21;15.70;67.70
62916;DHT22;49010;51.230;-2.306;2022-09-20T21:57:03;15.60;67.90
62916;DHT22;49010;51.230;-2.306;2022-09-20T22:00:58;15.60;68.20
62916;DHT22;49010;51.230;-2.306;2022-09-20T22:04:40;15.50;68.40
62916;DHT22;49010;51.230;-2.306;2022-09-20T22:08:22;15.40;68.90
62916;DHT22;49010;51.230;-2.306;2022-09-20T22:12:03;15.40;69.30
62916;DHT22;49010;51.230;-2.306;2022-09-20T22:15:45;15.30;69.70
62916;DHT22;49010;51.230;-2.306;2022-09-20T22:19:27;15.30;70.30
62916;DHT22;49010;51.230;-2.306;2022-09-20T22:23:09;15.20;70.40
62916;DHT22;49010;51.230;-2.306;2022-09-20T22:26:52;15.20;70.50
62916;DHT22;49010;51.230;-2.306;2022-09-20T22:30:34;15.10;70.70
62916;DHT22;49010;51.230;-2.306;2022-09-20T22:34:18;15.10;70.80
62916;DHT22;49010;51.230;-2.306;2022-09-20T22:38:00;15.00;71.10
62916;DHT22;49010;51.230;-2.306;2022-09-20T22:41:43;15.00;71.30
62916;DHT22;49010;51.230;-2.306;2022-09-20T22:45:25;14.90;71.30
62916;DHT22;49010;51.230;-2.306;2022-09-20T22:49:07;14.90;71.30
62916;DHT22;49010;51.230;-2.306;2022-09-20T22:52:49;14.80;71.20
62916;DHT22;49010;51.230;-2.306;2022-09-20T22:56:31;14.70;71.40
62916;DHT22;49010;51.230;-2.306;2022-09-20T23:00:14;14.70;71.50
62916;DHT22;49010;51.230;-2.306;2022-09-20T23:03:58;14.60;72.00
62916;DHT22;49010;51.230;-2.306;2022-09-20T23:07:40;14.50;72.20
62916;DHT22;49010;51.230;-2.306;2022-09-20T23:11:22;14.60;72.60
62916;DHT22;49010;51.230;-2.306;2022-09-20T23:15:05;14.60;72.70
62916;DHT22;49010;51.230;-2.306;2022-09-20T23:18:48;14.60;72.90
62916;DHT22;49010;51.230;-2.306;2022-09-20T23:22:30;14.60;73.00
62916;DHT22;49010;51.230;-2.306;2022-09-20T23:26:14;14.70;73.40
62916;DHT22;49010;51.230;-2.306;2022-09-20T23:29:57;14.70;73.60
62916;DHT22;49010;51.230;-2.306;2022-09-20T23:33:40;14.70;73.80
62916;DHT22;49010;51.230;-2.306;2022-09-20T23:37:27;14.70;74.00
62916;DHT22;49010;51.230;-2.306;2022-09-20T23:41:10;14.70;74.20
62916;DHT22;49010;51.230;-2.306;2022-09-20T23:44:52;14.80;74.40
62916;DHT22;49010;51.230;-2.306;2022-09-20T23:48:35;14.80;74.40
62916;DHT22;49010;51.230;-2.306;2022-09-20T23:52:17;14.80;74.50
62916;DHT22;49010;51.230;-2.306;2022-09-20T23:55:59;14.80;74.50
62916;DHT22;49010;51.230;-2.306;2022-09-20T23:59:41;14.80;74.50
